createdAt,value
2022-09-17T00:01:24.937Z,72.30
2022-09-17T00:03:56.254Z,71.20
2022-09-17T00:06:25.168Z,70.13
2022-09-17T00:08:54.198Z,71.80
2022-09-17T00:11:24.762Z,70.10
2022-09-17T00:13:54.084Z,69.97
2022-09-17T00:16:27.927Z,75.13
2022-09-17T00:18:58.041Z,69.90
2022-09-17T00:21:26.587Z,73.07
2022-09-17T00:23:56.311Z,71.77
2022-09-17T00:26:24.729Z,75.07
2022-09-17T00:28:53.687Z,81.23
2022-09-17T00:31:22.136Z,84.27
2022-09-17T00:33:50.624Z,76.17
2022-09-17T00:36:20.684Z,73.70
2022-09-17T00:38:50.771Z,70.07
2022-09-17T00:41:19.048Z,77.80
2022-09-17T00:43:49.451Z,77.97
2022-09-17T00:46:25.192Z,75.37
2022-09-17T00:48:54.219Z,73.93
2022-09-17T00:51:28.025Z,79.77
2022-09-17T00:53:56.845Z,74.97
2022-09-17T00:56:26.930Z,74.30
2022-09-17T00:58:55.919Z,79.07
2022-09-17T01:01:24.150Z,82.03
2022-09-17T01:03:52.211Z,70.50
2022-09-17T01:06:26.712Z,69.90
2022-09-17T01:09:05.959Z,75.20
2022-09-17T01:11:55.995Z,68.20
2022-09-17T01:14:36.419Z,69.27
2022-09-17T01:17:19.466Z,65.80
2022-09-17T01:20:13.923Z,68.60
2022-09-17T01:22:55.868Z,67.97
2022-09-17T01:25:25.072Z,68.13
2022-09-17T01:28:15.704Z,67.70
2022-09-17T01:31:02.118Z,68.87
2022-09-17T01:38:05.503Z,67.87
2022-09-17T01:40:41.447Z,74.80
2022-09-17T01:43:12.253Z,69.97
2022-09-17T01:45:43.253Z,74.57
2022-09-17T01:48:17.560Z,77.80
2022-09-17T01:50:50.870Z,80.93
2022-09-17T01:53:20.177Z,75.37
2022-09-17T01:55:50.247Z,84.23
2022-09-17T01:58:20.508Z,72.70
2022-09-17T02:00:52.565Z,71.03
2022-09-17T02:03:24.372Z,73.87
2022-09-17T02:05:56.608Z,73.40
2022-09-17T02:08:27.370Z,69.20
2022-09-17T02:10:59.648Z,66.90
2022-09-17T02:13:31.088Z,64.47
2022-09-17T02:16:09.750Z,65.43
2022-09-17T02:18:41.716Z,65.27
2022-09-17T02:21:14.720Z,64.57
2022-09-17T02:23:48.361Z,65.00
2022-09-17T02:26:18.824Z,68.27
2022-09-17T02:28:50.972Z,67.50
2022-09-17T02:31:19.226Z,65.27
2022-09-17T02:33:50.748Z,65.20
2022-09-17T02:36:19.385Z,67.00
2022-09-17T02:38:47.872Z,66.47
2022-09-17T02:41:17.952Z,64.07
2022-09-17T02:43:52.683Z,67.10
2022-09-17T02:46:38.195Z,74.90
2022-09-17T02:49:23.766Z,70.60
2022-09-17T02:51:59.360Z,69.37
2022-09-17T02:54:30.045Z,69.23
2022-09-17T02:57:06.382Z,74.67
2022-09-17T02:59:41.896Z,68.87
2022-09-17T03:02:14.545Z,63.97
2022-09-17T03:04:46.855Z,68.07
2022-09-17T03:07:15.246Z,71.87
2022-09-17T03:09:43.612Z,64.70
2022-09-17T03:12:12.395Z,70.20
2022-09-17T03:14:40.429Z,82.43
2022-09-17T03:17:08.618Z,85.07
2022-09-17T03:19:36.673Z,80.37
2022-09-17T03:22:06.102Z,71.67
2022-09-17T03:24:34.080Z,78.80
2022-09-17T03:27:02.198Z,93.93
2022-09-17T03:29:30.195Z,91.43
2022-09-17T03:31:58.210Z,71.43
2022-09-17T03:34:26.126Z,83.13
2022-09-17T03:36:54.191Z,86.03
2022-09-17T03:39:23.521Z,104.40
2022-09-17T03:41:51.507Z,106.90
2022-09-17T03:44:19.599Z,109.13
2022-09-17T03:46:47.672Z,91.53
2022-09-17T03:49:15.694Z,82.30
2022-09-17T03:51:44.152Z,126.63
2022-09-17T03:54:12.245Z,109.13
2022-09-17T03:56:41.544Z,96.40
2022-09-17T03:59:09.717Z,82.60
2022-09-17T04:01:37.812Z,93.03
2022-09-17T04:04:07.878Z,91.93
2022-09-17T04:06:35.990Z,97.37
2022-09-17T04:09:05.514Z,94.10
2022-09-17T04:11:33.492Z,80.70
2022-09-17T04:14:02.975Z,90.50
2022-09-17T04:16:31.050Z,93.23
2022-09-17T04:18:59.158Z,98.63
2022-09-17T04:21:27.238Z,115.03
2022-09-17T04:23:55.452Z,118.20
2022-09-17T04:26:23.549Z,130.97
2022-09-17T04:28:51.519Z,124.27
2022-09-17T04:31:22.691Z,106.33
2022-09-17T04:33:50.726Z,123.53
2022-09-17T04:36:19.028Z,125.90
2022-09-17T04:38:49.355Z,132.70
2022-09-17T04:41:17.389Z,149.10
2022-09-17T04:43:45.419Z,101.10
2022-09-17T04:46:14.196Z,167.63
2022-09-17T04:48:43.647Z,111.83
2022-09-17T04:51:11.626Z,118.03
2022-09-17T04:53:39.610Z,126.57
2022-09-17T04:56:07.565Z,156.17
2022-09-17T04:58:35.540Z,173.17
2022-09-17T05:01:03.603Z,206.07
2022-09-17T05:03:31.685Z,163.17
2022-09-17T05:06:01.068Z,158.00
2022-09-17T05:08:29.053Z,150.57
2022-09-17T05:10:57.590Z,119.87
2022-09-17T05:13:25.588Z,140.13
2022-09-17T05:15:56.073Z,128.03
2022-09-17T05:18:24.306Z,128.23
2022-09-17T05:20:52.353Z,215.03
2022-09-17T05:23:21.827Z,182.43
2022-09-17T05:25:49.838Z,133.20
2022-09-17T05:28:17.872Z,205.57
2022-09-17T05:30:45.920Z,159.87
2022-09-17T05:33:13.890Z,134.87
2022-09-17T05:35:44.134Z,116.20
2022-09-17T05:38:12.364Z,119.70
2022-09-17T05:40:41.809Z,105.10
2022-09-17T05:43:11.159Z,109.00
2022-09-17T05:45:39.902Z,101.03
2022-09-17T05:48:10.390Z,104.87
2022-09-17T05:50:38.408Z,116.00
2022-09-17T05:53:07.505Z,99.00
2022-09-17T05:55:36.168Z,95.83
2022-09-17T05:58:12.363Z,95.63
2022-09-17T06:00:41.126Z,97.20
2022-09-17T06:03:09.646Z,83.47
2022-09-17T06:05:37.711Z,105.67
2022-09-17T06:08:05.745Z,109.87
2022-09-17T06:10:33.924Z,100.03
2022-09-17T06:13:01.941Z,105.50
2022-09-17T06:15:31.426Z,116.20
2022-09-17T06:17:59.548Z,121.97
2022-09-17T06:20:27.604Z,106.80
2022-09-17T06:22:58.098Z,104.57
2022-09-17T06:25:26.675Z,118.37
2022-09-17T06:27:54.639Z,125.97
2022-09-17T06:30:22.585Z,140.30
2022-09-17T06:32:51.928Z,123.03
2022-09-17T06:35:20.414Z,121.50
2022-09-17T06:37:48.989Z,175.70
2022-09-17T06:40:17.686Z,156.60
2022-09-17T06:42:45.715Z,156.63
2022-09-17T06:45:16.735Z,129.00
2022-09-17T06:47:46.441Z,149.00
2022-09-17T06:50:16.007Z,134.43
2022-09-17T06:52:49.473Z,223.97
2022-09-17T06:55:17.729Z,128.17
2022-09-17T06:57:45.970Z,152.33
2022-09-17T07:00:15.057Z,174.17
2022-09-17T07:02:43.137Z,156.20
2022-09-17T07:05:11.352Z,167.93
2022-09-17T07:07:41.188Z,211.10
2022-09-17T07:10:09.715Z,133.27
2022-09-17T07:12:42.925Z,107.67
2022-09-17T07:15:13.902Z,108.47
2022-09-17T07:17:42.670Z,96.80
2022-09-17T07:20:11.699Z,94.97
2022-09-17T07:22:41.251Z,96.40
2022-09-17T07:25:10.423Z,83.50
2022-09-17T07:27:38.497Z,75.90
2022-09-17T07:30:07.756Z,76.77
2022-09-17T07:32:35.763Z,88.15
2022-09-17T07:35:04.301Z,68.67
2022-09-17T07:37:32.311Z,64.30
2022-09-17T07:40:01.884Z,64.67
2022-09-17T07:42:30.056Z,69.87
2022-09-17T07:45:01.830Z,67.80
2022-09-17T07:47:30.936Z,74.50
2022-09-17T07:49:58.973Z,70.53
2022-09-17T07:52:27.538Z,86.03
2022-09-17T07:54:55.518Z,73.87
2022-09-17T07:57:24.993Z,71.57
2022-09-17T07:59:53.025Z,73.70
2022-09-17T08:02:24.202Z,70.67
2022-09-17T08:04:52.565Z,73.27
2022-09-17T08:07:20.541Z,70.50
2022-09-17T08:09:48.524Z,67.27
2022-09-17T08:12:18.344Z,64.87
2022-09-17T08:14:47.699Z,62.50
2022-09-17T08:17:15.783Z,68.00
2022-09-17T08:19:43.991Z,62.70
2022-09-17T08:22:11.983Z,60.63
2022-09-17T08:24:39.993Z,60.57
2022-09-17T08:27:08.013Z,59.07
2022-09-17T08:29:35.984Z,59.70
2022-09-17T08:32:05.612Z,59.40
2022-09-17T08:34:33.735Z,61.27
2022-09-17T08:37:02.949Z,58.53
2022-09-17T08:39:30.971Z,66.47
2022-09-17T08:42:09.433Z,60.97
2022-09-17T08:44:41.586Z,62.43
2022-09-17T08:47:16.415Z,62.07
2022-09-17T08:49:49.837Z,59.77
2022-09-17T08:52:43.088Z,59.13
2022-09-17T08:55:26.377Z,60.57
2022-09-17T08:58:02.228Z,60.20
2022-09-17T09:00:37.990Z,59.63
2022-09-17T09:03:20.733Z,66.28
2022-09-17T09:05:50.086Z,60.80
2022-09-17T09:08:20.564Z,61.43
2022-09-17T09:10:51.990Z,60.17
2022-09-17T09:13:23.288Z,59.50
2022-09-17T09:15:56.147Z,59.93
2022-09-17T09:18:27.655Z,59.83
2022-09-17T09:20:58.757Z,59.80
2022-09-17T09:23:32.334Z,57.90
2022-09-17T09:26:07.089Z,57.80
2022-09-17T09:29:04.749Z,58.50
2022-09-17T09:32:15.242Z,64.50
2022-09-17T09:34:46.350Z,58.97
2022-09-17T09:37:18.836Z,60.23
2022-09-17T09:39:47.531Z,60.10
2022-09-17T09:42:20.760Z,61.37
2022-09-17T09:44:48.754Z,60.57
2022-09-17T09:47:26.640Z,65.57
2022-09-17T09:50:09.433Z,64.10
2022-09-17T09:52:47.048Z,72.67
2022-09-17T09:55:30.355Z,70.80
2022-09-17T09:58:05.009Z,75.10
2022-09-17T10:00:36.597Z,68.43
2022-09-17T10:03:08.051Z,76.23
2022-09-17T10:05:37.475Z,80.63
2022-09-17T10:08:12.746Z,83.93
2022-09-17T10:10:55.508Z,83.63
2022-09-17T10:13:24.163Z,81.03
2022-09-17T10:15:52.385Z,98.07
2022-09-17T10:18:21.744Z,111.23
2022-09-17T10:20:59.463Z,118.37
2022-09-17T10:23:29.415Z,108.57
2022-09-17T10:25:57.686Z,121.97
2022-09-17T10:28:40.546Z,112.97
2022-09-17T10:31:10.747Z,108.00
2022-09-17T10:33:52.828Z,125.30
2022-09-17T10:36:41.234Z,119.57
2022-09-17T10:39:32.111Z,128.17
2022-09-17T10:42:01.315Z,159.13
2022-09-17T10:44:30.607Z,98.97
2022-09-17T10:47:04.607Z,112.73
2022-09-17T10:49:37.979Z,104.43
2022-09-17T10:52:11.986Z,96.80
2022-09-17T10:55:00.833Z,104.03
2022-09-17T10:57:46.455Z,84.77
2022-09-17T11:00:17.091Z,103.83
2022-09-17T11:03:23.141Z,116.53
2022-09-17T11:06:15.634Z,118.07
2022-09-17T11:08:51.410Z,166.80
2022-09-17T11:11:29.849Z,204.37
2022-09-17T11:14:04.067Z,251.67
2022-09-17T11:16:38.060Z,270.50
2022-09-17T11:19:14.309Z,283.87
2022-09-17T11:21:45.798Z,177.17
2022-09-17T11:24:54.668Z,263.60
2022-09-17T11:27:39.478Z,148.83
2022-09-17T11:30:16.869Z,151.23
2022-09-17T11:33:20.348Z,110.70
2022-09-17T11:35:49.952Z,105.87
2022-09-17T11:38:22.012Z,97.20
2022-09-17T11:40:54.517Z,117.87
2022-09-17T11:43:27.173Z,100.97
2022-09-17T11:46:01.387Z,95.60
2022-09-17T11:48:35.126Z,104.20
2022-09-17T11:51:08.923Z,103.87
2022-09-17T11:53:40.873Z,85.83
2022-09-17T11:56:16.870Z,81.67
2022-09-17T11:58:45.819Z,79.87
2022-09-17T12:01:18.253Z,78.70
2022-09-17T12:03:52.456Z,76.53
2022-09-17T12:06:24.349Z,80.57
2022-09-17T12:08:56.818Z,68.83
2022-09-17T12:11:33.135Z,71.30
2022-09-17T12:14:05.802Z,69.67
2022-09-17T12:16:37.508Z,71.07
2022-09-17T12:19:12.060Z,73.40
2022-09-17T12:21:44.640Z,71.37
2022-09-17T12:24:16.255Z,64.90
2022-09-17T12:27:01.064Z,65.60
2022-09-17T12:30:00.228Z,66.10
2022-09-17T12:32:39.125Z,65.07
2022-09-17T12:35:17.647Z,67.07
2022-09-17T12:37:55.112Z,63.03
2022-09-17T12:40:28.485Z,62.80
2022-09-17T12:43:06.472Z,62.80
2022-09-17T12:45:42.190Z,61.20
2022-09-17T12:48:24.756Z,61.57
2022-09-17T12:51:03.390Z,62.33
2022-09-17T12:53:37.098Z,61.80
2022-09-17T12:56:15.974Z,63.23
2022-09-17T12:59:04.419Z,67.63
2022-09-17T13:01:39.894Z,62.27
2022-09-17T13:04:17.120Z,64.30
2022-09-17T13:07:16.261Z,61.10
2022-09-17T13:09:53.263Z,62.00
2022-09-17T13:12:25.404Z,61.77
2022-09-17T13:15:05.975Z,62.67
2022-09-17T13:17:43.414Z,62.90
2022-09-17T13:20:16.377Z,64.40
2022-09-17T13:22:49.485Z,62.00
2022-09-17T13:25:19.794Z,63.33
2022-09-17T13:27:49.375Z,61.53
2022-09-17T13:30:20.720Z,64.47
2022-09-17T13:32:55.198Z,62.97
2022-09-17T13:35:50.822Z,67.80
2022-09-17T13:38:23.769Z,63.50
2022-09-17T13:40:53.038Z,61.30
2022-09-17T13:43:26.384Z,63.80
2022-09-17T13:46:16.260Z,70.93
2022-09-17T13:48:54.476Z,63.30
2022-09-17T13:51:59.143Z,66.20
2022-09-17T13:54:39.046Z,62.37
2022-09-17T13:57:10.262Z,62.20
2022-09-17T13:59:38.753Z,69.40
2022-09-17T14:02:37.990Z,63.20
2022-09-17T14:05:34.427Z,63.13
2022-09-17T14:08:14.493Z,62.97
2022-09-17T14:10:44.228Z,65.60
2022-09-17T14:13:44.387Z,65.53
2022-09-17T14:16:35.882Z,65.70
2022-09-17T14:19:23.004Z,65.50
2022-09-17T14:22:00.732Z,64.33
2022-09-17T14:24:35.586Z,65.10
2022-09-17T14:27:11.824Z,64.70
2022-09-17T14:29:52.700Z,62.40
2022-09-17T14:32:32.334Z,62.17
2022-09-17T14:35:02.816Z,62.90
2022-09-17T14:37:31.128Z,64.20
2022-09-17T14:40:00.287Z,62.93
2022-09-17T14:42:33.479Z,64.60
2022-09-17T14:45:03.182Z,64.77
2022-09-17T14:47:31.476Z,65.00
2022-09-17T14:50:21.020Z,66.57
2022-09-17T14:52:50.144Z,63.07
2022-09-17T14:55:20.584Z,66.30
2022-09-17T14:57:52.180Z,66.90
2022-09-17T15:00:23.194Z,61.70
2022-09-17T15:02:54.194Z,68.07
2022-09-17T15:05:30.388Z,64.67
2022-09-17T15:08:22.795Z,63.83
2022-09-17T15:10:55.127Z,62.57
2022-09-17T15:13:27.150Z,61.80
2022-09-17T15:16:01.907Z,63.50
2022-09-17T15:18:37.628Z,66.80
2022-09-17T15:21:12.330Z,84.57
2022-09-17T15:23:40.813Z,69.23
2022-09-17T15:26:08.844Z,63.20
2022-09-17T15:28:40.098Z,76.63
2022-09-17T15:31:15.716Z,61.27
2022-09-17T15:33:44.216Z,63.20
2022-09-17T15:36:21.144Z,61.27
2022-09-17T15:38:49.674Z,62.10
2022-09-17T15:41:28.522Z,60.67
2022-09-17T15:44:28.580Z,59.47
2022-09-17T15:46:56.806Z,59.27
2022-09-17T15:49:29.966Z,62.47
2022-09-17T15:52:36.637Z,61.17
2022-09-17T15:55:06.993Z,61.50
2022-09-17T15:57:34.985Z,61.50
2022-09-17T16:00:14.054Z,59.27
2022-09-17T16:02:42.365Z,59.80
2022-09-17T16:05:55.602Z,60.40
2022-09-17T16:08:24.907Z,63.23
2022-09-17T16:10:54.323Z,61.67
2022-09-17T16:13:25.291Z,63.53
2022-09-17T16:15:56.734Z,60.53
2022-09-17T16:18:24.727Z,63.70
2022-09-17T16:20:52.718Z,61.67
2022-09-17T16:23:20.688Z,61.37
2022-09-17T16:25:48.822Z,60.43
2022-09-17T16:28:20.549Z,60.27
2022-09-17T16:30:49.639Z,62.90
2022-09-17T16:33:19.094Z,71.25
2022-09-17T16:35:47.072Z,67.67
2022-09-17T16:38:15.500Z,61.90
2022-09-17T16:40:45.334Z,61.90
2022-09-17T16:43:13.468Z,62.33
2022-09-17T16:45:42.910Z,62.63
2022-09-17T16:48:11.422Z,62.67
2022-09-17T16:50:41.237Z,62.80
2022-09-17T16:53:09.198Z,59.53
2022-09-17T16:55:37.669Z,60.00
2022-09-17T16:58:05.732Z,60.60
2022-09-17T17:00:33.792Z,59.47
2022-09-17T17:03:03.239Z,59.30
2022-09-17T17:05:32.438Z,62.30
2022-09-17T17:08:05.876Z,61.60
2022-09-17T17:10:34.939Z,90.63
2022-09-17T17:13:03.028Z,120.03
2022-09-17T17:15:31.215Z,98.57
2022-09-17T17:17:59.383Z,105.33
2022-09-17T17:20:29.465Z,70.50
2022-09-17T17:22:57.428Z,62.37
2022-09-17T17:25:27.139Z,62.10
2022-09-17T17:27:55.426Z,62.07
2022-09-17T17:30:23.409Z,61.20
2022-09-17T17:32:52.323Z,61.83
2022-09-17T17:35:22.078Z,58.37
2022-09-17T17:37:51.417Z,59.77
2022-09-17T17:40:20.949Z,66.80
2022-09-17T17:42:52.709Z,58.07
2022-09-17T17:45:20.681Z,58.60
2022-09-17T17:47:48.904Z,62.10
2022-09-17T17:50:17.089Z,58.30
2022-09-17T17:52:48.087Z,60.47
2022-09-17T17:55:17.943Z,59.87
2022-09-17T17:57:46.065Z,60.77
2022-09-17T18:00:16.699Z,58.13
2022-09-17T18:02:44.856Z,58.57
2022-09-17T18:05:13.167Z,59.10
2022-09-17T18:07:41.300Z,59.20
2022-09-17T18:10:10.446Z,60.50
2022-09-17T18:12:40.049Z,59.87
2022-09-17T18:15:08.853Z,61.50
2022-09-17T18:17:36.887Z,60.50
2022-09-17T18:20:05.684Z,59.47
2022-09-17T18:22:33.658Z,57.87
2022-09-17T18:25:01.661Z,59.00
2022-09-17T18:27:29.676Z,57.37
2022-09-17T18:29:59.093Z,58.80
2022-09-17T18:32:27.059Z,59.67
2022-09-17T18:34:54.994Z,60.37
2022-09-17T18:37:22.991Z,59.77
2022-09-17T18:39:58.389Z,59.13
2022-09-17T18:42:27.308Z,58.50
2022-09-17T18:44:55.413Z,59.93
2022-09-17T18:47:24.843Z,61.10
2022-09-17T18:49:53.153Z,60.43
2022-09-17T18:52:21.266Z,59.40
2022-09-17T18:54:49.219Z,59.53
2022-09-17T18:57:17.263Z,63.07
2022-09-17T18:59:47.097Z,63.63
2022-09-17T19:02:15.136Z,61.07
2022-09-17T19:04:44.499Z,60.90
2022-09-17T19:07:12.434Z,62.90
2022-09-17T19:09:40.326Z,62.70
2022-09-17T19:12:08.306Z,63.17
2022-09-17T19:14:36.232Z,60.90
2022-09-17T19:17:04.229Z,63.47
2022-09-17T19:19:32.211Z,60.77
2022-09-17T19:22:01.464Z,59.87
2022-09-17T19:24:29.418Z,65.03
2022-09-17T19:26:58.813Z,72.70
2022-09-17T19:29:27.358Z,63.73
2022-09-17T19:31:55.367Z,61.17
2022-09-17T19:34:23.296Z,62.30
2022-09-17T19:36:51.272Z,62.70
2022-09-17T19:39:20.593Z,61.50
2022-09-17T19:41:48.555Z,66.20
2022-09-17T19:44:16.519Z,61.90
2022-09-17T19:46:45.119Z,62.77
2022-09-17T19:49:13.864Z,63.87
2022-09-17T19:51:41.839Z,62.57
2022-09-17T19:54:10.316Z,64.40
2022-09-17T19:56:39.873Z,69.77
2022-09-17T19:59:07.924Z,65.27
2022-09-17T20:01:35.911Z,69.77
2022-09-17T20:04:04.253Z,72.93
2022-09-17T20:06:34.534Z,76.57
2022-09-17T20:09:02.651Z,73.23
2022-09-17T20:11:30.643Z,83.03
2022-09-17T20:14:03.050Z,107.10
2022-09-17T20:16:31.550Z,98.27
2022-09-17T20:18:59.663Z,105.83
2022-09-17T20:21:29.475Z,99.37
2022-09-17T20:23:58.380Z,107.33
2022-09-17T20:26:26.628Z,103.90
2022-09-17T20:28:54.862Z,132.17
2022-09-17T20:31:25.370Z,127.97
2022-09-17T20:33:54.252Z,175.43
2022-09-17T20:36:23.810Z,182.80
2022-09-17T20:39:14.324Z,154.20
2022-09-17T20:41:40.592Z,194.97
2022-09-17T20:44:08.874Z,213.73
2022-09-17T20:46:38.222Z,250.63
2022-09-17T20:49:06.206Z,203.80
2022-09-17T20:51:34.301Z,234.17
2022-09-17T20:54:02.884Z,254.00
2022-09-17T20:56:33.248Z,216.40
2022-09-17T20:59:08.720Z,339.33
2022-09-17T21:01:38.436Z,321.83
2022-09-17T21:04:08.214Z,324.17
2022-09-17T21:06:37.962Z,308.13
2022-09-17T21:09:06.924Z,336.10
2022-09-17T21:11:35.609Z,439.33
2022-09-17T21:14:03.894Z,426.73
2022-09-17T21:16:32.178Z,498.77
2022-09-17T21:19:02.881Z,437.47
2022-09-17T21:21:34.295Z,458.80
2022-09-17T21:24:02.615Z,433.03
2022-09-17T21:26:31.214Z,428.40
2022-09-17T21:28:59.189Z,458.20
2022-09-17T21:31:32.330Z,440.00
2022-09-17T21:34:03.732Z,484.87
2022-09-17T21:36:33.955Z,457.60
2022-09-17T21:39:02.995Z,441.13
2022-09-17T21:41:31.207Z,437.83
2022-09-17T21:43:59.249Z,399.87
2022-09-17T21:46:28.534Z,348.83
2022-09-17T21:48:57.927Z,484.53
2022-09-17T21:51:30.416Z,403.97
2022-09-17T21:54:00.455Z,422.87
2022-09-17T21:56:29.788Z,404.77
2022-09-17T21:58:58.743Z,382.90
2022-09-17T22:01:28.053Z,418.17
2022-09-17T22:03:57.097Z,452.70
2022-09-17T22:06:50.908Z,464.73
2022-09-17T22:09:20.502Z,325.00
2022-09-17T22:11:48.465Z,413.20
2022-09-17T22:14:19.448Z,476.60
2022-09-17T22:16:48.865Z,371.17
2022-09-17T22:19:18.577Z,463.10
2022-09-17T22:21:48.329Z,381.67
2022-09-17T22:24:18.194Z,380.57
2022-09-17T22:26:47.570Z,406.90
2022-09-17T22:29:17.304Z,375.30
2022-09-17T22:31:46.222Z,359.07
2022-09-17T22:34:15.597Z,412.07
2022-09-17T22:36:43.914Z,423.90
2022-09-17T22:39:12.219Z,428.87
2022-09-17T22:41:45.634Z,348.47
2022-09-17T22:44:15.710Z,358.90
2022-09-17T22:46:46.215Z,349.37
2022-09-17T22:49:14.770Z,360.90
2022-09-17T22:51:43.377Z,444.37
2022-09-17T22:54:12.597Z,373.73
2022-09-17T22:56:42.255Z,421.67
2022-09-17T22:59:10.329Z,382.20
2022-09-17T23:01:40.079Z,466.23
2022-09-17T23:04:08.209Z,441.00
2022-09-17T23:06:38.501Z,455.00
2022-09-17T23:09:07.344Z,460.27
2022-09-17T23:11:36.451Z,429.10
2022-09-17T23:14:08.714Z,421.40
2022-09-17T23:16:38.636Z,403.47
2022-09-17T23:19:07.295Z,419.60
2022-09-17T23:21:35.707Z,507.07
2022-09-17T23:24:28.964Z,495.10
2022-09-17T23:26:57.527Z,608.17
2022-09-17T23:29:26.999Z,437.00
2022-09-17T23:31:54.950Z,489.50
2022-09-17T23:34:23.066Z,466.80
2022-09-17T23:36:51.074Z,489.60
2022-09-17T23:39:19.325Z,537.53
2022-09-17T23:41:48.061Z,472.07
2022-09-17T23:44:16.541Z,437.60
2022-09-17T23:46:46.926Z,393.43
2022-09-17T23:49:15.719Z,472.60
2022-09-17T23:51:44.009Z,547.47
2022-09-17T23:54:12.164Z,477.37
2022-09-17T23:56:40.373Z,440.50
2022-09-17T23:59:08.540Z,465.97
